Aérodrome :
LOGIN :

S'inscrire | Disclaimer

   EN    FR    IT 

 










Légende :    VFR   VFR Marginal   IFR   IFR Intensif   IFR Très Intensif
Visi : 
Plafond : 
>= 8 km
>= 3000ft
5 à 8 km
1000 à 3000 ft
1500m à 5 km
500 à 1000 ft
800 à 1500m
200 à 500 ft
< 800m
< 200 ft
Symboles :   Orages  Brouillard  Fortes neiges  Fortes précipitations  Vent > 20 kt
SIGMETs :   Divers  Orages  Givrage  Turbulence  Onde Orograph.  Cendres Volcan.






- Altitude de l'aérodrome : 382 ft
- Code IATA : CAI


HECA - Cairo Int.

DERNIER METAR :
  • 250800Z 04002KT 6000 NSC 13/03 Q1031 NOSIG

METARs EXPIRÉS :
  • 250700Z 29003KT 6000 NSC 12/03 Q1030 NOSIG
  • 250630Z 22002KT 6000 NSC 10/03 Q1030 NOSIG
  • 250600Z 00000KT 6000 NSC 08/01 Q1029 NOSIG
  • 250530Z 17003KT 6000 NSC 08/01 Q1029 NOSIG

TAF TAF HECA
Valide du 25 à 06h jusqu'au 26 à 12h UTC


250500Z 2506/2612 04009KT 9999 SCT025
TEMPO 2506/2508 4000 HZ NSC



MET'MAP, la Météo Aéronautique d'un coup d'oeil ! - Copyright ORBIFLY Décembre 2007 - Disclaimer

ORBIFLY MET'MAP TEAM :

Programmation & Développement : Alexandra Zaïnal
Sur une idée originale de : Baudouin d'Aumeries
Assistance à la programmation : Marc-Olivier Méhu
Soutien technique & logistique : Manuel Goepfert

Contact : metmap@orbifly.com




SOURCES & CREDITS :

   NOAA